createdAt,value
2023-04-11T00:00:30.706Z,99708.34
2023-04-11T00:03:03.664Z,99706.69
2023-04-11T00:05:34.131Z,99701.28
2023-04-11T00:08:01.614Z,99702.09
2023-04-11T00:10:28.653Z,99693.41
2023-04-11T00:12:56.913Z,99704.25
2023-04-11T00:15:24.823Z,99708.59
2023-04-11T00:17:53.712Z,99710.72
2023-04-11T00:20:21.327Z,99702.84
2023-04-11T00:22:48.375Z,99706.06
2023-04-11T00:25:15.603Z,99703.88
2023-04-11T00:27:42.781Z,99706.31
2023-04-11T00:30:10.387Z,99706.31
2023-04-11T00:32:37.417Z,99696.56
2023-04-11T00:35:04.751Z,99704.75
2023-04-11T00:37:36.536Z,99698.00
2023-04-11T00:40:05.944Z,99703.44
2023-04-11T00:42:33.644Z,99688.25
2023-04-11T00:45:00.887Z,99695.53
2023-04-11T00:47:28.206Z,99702.84
2023-04-11T00:49:55.340Z,99705.56
2023-04-11T00:52:22.364Z,99699.31
2023-04-11T00:54:51.217Z,99710.97
2023-04-11T00:57:18.244Z,99700.16
2023-04-11T00:59:48.565Z,99706.38
2023-04-11T01:02:15.733Z,99704.75
2023-04-11T01:04:44.042Z,99701.47
2023-04-11T01:07:12.179Z,99706.06
2023-04-11T01:09:39.856Z,99706.88
2023-04-11T01:12:07.232Z,99695.81
2023-04-11T01:14:34.305Z,99698.75
2023-04-11T01:17:02.650Z,99702.84
2023-04-11T01:19:31.336Z,99708.28
2023-04-11T01:21:59.614Z,99713.94
2023-04-11T01:24:26.832Z,99715.78
2023-04-11T01:26:54.452Z,99715.44
2023-04-11T01:29:21.567Z,99718.31
2023-04-11T01:31:50.110Z,99721.53
2023-04-11T01:34:18.521Z,99722.84
2023-04-11T01:36:45.748Z,99719.56
2023-04-11T01:39:12.947Z,99716.28
2023-04-11T01:41:42.077Z,99716.53
2023-04-11T01:44:09.258Z,99721.88
2023-04-11T01:46:36.230Z,99713.44
2023-04-11T01:49:03.695Z,99723.44
2023-04-11T01:51:31.944Z,99723.59
2023-04-11T01:53:59.047Z,99718.84
2023-04-11T01:56:26.157Z,99713.03
2023-04-11T01:58:53.520Z,99723.19
2023-04-11T02:01:21.780Z,99713.09
2023-04-11T02:03:48.895Z,99708.66
2023-04-11T02:06:17.062Z,99708.00
2023-04-11T02:08:44.859Z,99704.16
2023-04-11T02:11:12.040Z,99698.09
2023-04-11T02:13:38.942Z,99693.72
2023-04-11T02:16:11.840Z,99691.75
2023-04-11T02:18:40.041Z,99680.59
2023-04-11T02:21:07.420Z,99683.53
2023-04-11T02:23:34.558Z,99682.97
2023-04-11T02:26:02.694Z,99680.50
2023-04-11T02:28:30.467Z,99677.47
2023-04-11T02:30:57.498Z,99685.59
2023-04-11T02:33:24.660Z,99686.06
2023-04-11T02:35:51.890Z,99683.84
2023-04-11T02:38:19.041Z,99682.72
2023-04-11T02:40:46.927Z,99683.78
2023-04-11T02:43:13.888Z,99676.47
2023-04-11T02:45:42.122Z,99672.09
2023-04-11T02:48:10.320Z,99674.59
2023-04-11T02:50:42.623Z,99680.00
2023-04-11T02:53:09.791Z,99681.88
2023-04-11T02:55:41.750Z,99679.19
2023-04-11T02:58:08.855Z,99682.47
2023-04-11T03:00:37.847Z,99679.19
2023-04-11T03:03:08.053Z,99671.06
2023-04-11T03:05:40.560Z,99672.34
2023-04-11T03:08:09.232Z,99667.56
2023-04-11T03:10:39.327Z,99668.94
2023-04-11T03:13:09.827Z,99671.41
2023-04-11T03:15:37.024Z,99676.31
2023-04-11T03:18:07.929Z,99669.59
2023-04-11T03:20:37.942Z,99674.78
2023-04-11T03:23:05.814Z,99671.00
2023-04-11T03:25:33.174Z,99676.97
2023-04-11T03:28:02.418Z,99669.69
2023-04-11T03:30:29.650Z,99670.59
2023-04-11T03:33:01.120Z,99665.75
2023-04-11T03:35:29.709Z,99673.75
2023-04-11T03:37:57.411Z,99679.47
2023-04-11T03:40:25.497Z,99671.38
2023-04-11T03:43:04.873Z,99665.63
2023-04-11T03:45:35.014Z,99663.75
2023-04-11T03:48:05.151Z,99665.13
2023-04-11T03:50:55.629Z,99669.47
2023-04-11T03:53:28.049Z,99659.22
2023-04-11T03:56:01.631Z,99665.72
2023-04-11T03:58:34.592Z,99665.94
2023-04-11T04:01:02.874Z,99663.25
2023-04-11T04:03:30.871Z,99662.19
2023-04-11T04:05:59.316Z,99655.13
2023-04-11T04:08:26.532Z,99666.84
2023-04-11T04:10:53.510Z,99666.69
2023-04-11T04:13:21.382Z,99670.53
2023-04-11T04:16:08.706Z,99671.69
2023-04-11T04:18:36.384Z,99667.66
2023-04-11T04:21:03.926Z,99667.41
2023-04-11T04:23:32.617Z,99672.59
2023-04-11T04:26:25.218Z,99657.41
2023-04-11T04:29:06.401Z,99668.66
2023-04-11T04:31:50.753Z,99667.34
2023-04-11T04:34:22.068Z,99673.06
2023-04-11T04:36:50.465Z,99658.47
2023-04-11T04:39:25.718Z,99667.81
2023-04-11T04:42:01.573Z,99667.41
2023-04-11T04:44:35.543Z,99666.16
2023-04-11T04:47:08.019Z,99664.66
2023-04-11T04:49:34.952Z,99669.16
2023-04-11T04:52:01.925Z,99670.09
2023-04-11T04:54:31.380Z,99670.47
2023-04-11T04:56:58.681Z,99669.22
2023-04-11T04:59:26.208Z,99663.31
2023-04-11T05:02:00.495Z,99667.41
2023-04-11T05:04:30.437Z,99654.19
2023-04-11T05:06:59.337Z,99660.22
2023-04-11T05:09:28.526Z,99652.78
2023-04-11T05:12:07.240Z,99648.34
2023-04-11T05:14:36.665Z,99649.31
2023-04-11T05:17:04.160Z,99641.88
2023-04-11T05:19:33.419Z,99647.19
2023-04-11T05:22:01.361Z,99638.31
2023-04-11T05:24:28.810Z,99633.84
2023-04-11T05:27:01.193Z,99630.91
2023-04-11T05:29:30.078Z,99621.72
2023-04-11T05:31:57.911Z,99637.81
2023-04-11T05:34:25.099Z,99639.16
2023-04-11T05:36:53.126Z,99630.44
2023-04-11T05:39:20.782Z,99632.59
2023-04-11T05:41:49.523Z,99634.22
2023-04-11T05:44:16.521Z,99635.09
2023-04-11T05:46:43.540Z,99635.13
2023-04-11T05:49:11.760Z,99629.41
2023-04-11T05:51:38.907Z,99622.91
2023-04-11T05:54:07.236Z,99634.34
2023-04-11T05:56:35.439Z,99626.28
2023-04-11T05:59:03.985Z,99627.16
2023-04-11T06:01:32.257Z,99631.25
2023-04-11T06:04:34.110Z,99623.97
2023-04-11T06:07:03.855Z,99620.72
2023-04-11T06:09:32.732Z,99629.19
2023-04-11T06:12:01.687Z,99622.44
2023-04-11T06:14:28.705Z,99616.72
2023-04-11T06:16:56.056Z,99612.38
2023-04-11T06:19:23.021Z,99617.31
2023-04-11T06:21:49.965Z,99620.59
2023-04-11T06:24:20.080Z,99630.66
2023-04-11T06:26:47.075Z,99622.22
2023-04-11T06:29:14.372Z,99621.69
2023-04-11T06:31:41.736Z,99619.50
2023-04-11T06:34:08.793Z,99624.69
2023-04-11T06:36:37.378Z,99626.31
2023-04-11T06:39:05.841Z,99630.94
2023-04-11T06:41:32.910Z,99624.13
2023-04-11T06:44:00.196Z,99624.41
2023-04-11T06:46:27.560Z,99619.50
2023-04-11T06:48:54.604Z,99619.22
2023-04-11T06:51:24.577Z,99626.28
2023-04-11T06:53:51.592Z,99625.72
2023-04-11T06:56:24.098Z,99622.69
2023-04-11T06:58:53.216Z,99621.31
2023-04-11T07:01:25.691Z,99610.97
2023-04-11T07:03:56.444Z,99619.41
2023-04-11T07:06:23.646Z,99612.59
2023-04-11T07:08:52.550Z,99613.94
2023-04-11T07:11:20.246Z,99610.38
2023-04-11T07:13:47.377Z,99611.72
2023-04-11T07:16:14.443Z,99608.75
2023-04-11T07:18:43.815Z,99604.38
2023-04-11T07:21:17.592Z,99607.31
2023-04-11T07:23:45.125Z,99601.00
2023-04-11T07:26:13.262Z,99598.53
2023-04-11T07:28:41.660Z,99591.47
2023-04-11T07:31:09.818Z,99603.72
2023-04-11T07:33:37.909Z,99604.84
2023-04-11T07:36:05.988Z,99595.31
2023-04-11T07:38:37.759Z,99600.56
2023-04-11T07:41:09.078Z,99600.28
2023-04-11T07:43:36.487Z,99588.81
2023-04-11T07:46:03.943Z,99590.47
2023-04-11T07:48:33.466Z,99592.38
2023-04-11T07:51:00.974Z,99584.47
2023-04-11T07:53:28.074Z,99583.13
2023-04-11T07:55:55.153Z,99582.84
2023-04-11T07:58:22.449Z,99576.84
2023-04-11T08:00:50.750Z,99575.16
2023-04-11T08:03:17.968Z,99576.78
2023-04-11T08:05:47.981Z,99572.38
2023-04-11T08:08:14.952Z,99569.09
2023-04-11T08:10:44.569Z,99570.16
2023-04-11T08:13:11.484Z,99561.69
2023-04-11T08:15:40.434Z,99566.09
2023-04-11T08:18:07.508Z,99564.69
2023-04-11T08:20:35.049Z,99562.22
2023-04-11T08:23:06.309Z,99556.16
2023-04-11T08:25:33.745Z,99549.56
2023-04-11T08:28:01.519Z,99559.91
2023-04-11T08:30:28.640Z,99548.47
2023-04-11T08:32:55.947Z,99546.81
2023-04-11T08:35:23.104Z,99549.53
2023-04-11T08:37:50.103Z,99546.56
2023-04-11T08:40:17.033Z,99540.00
2023-04-11T08:42:44.776Z,99536.97
2023-04-11T08:45:12.286Z,99537.41
2023-04-11T08:47:39.281Z,99539.78
2023-04-11T08:50:06.874Z,99537.88
2023-04-11T08:52:38.884Z,99532.94
2023-04-11T08:55:06.212Z,99532.44
2023-04-11T08:57:33.359Z,99524.81
2023-04-11T09:00:14.320Z,99520.41
2023-04-11T09:03:03.349Z,99528.25
2023-04-11T09:05:39.307Z,99515.13
2023-04-11T09:08:11.882Z,99517.28
2023-04-11T09:10:41.047Z,99507.13
2023-04-11T09:13:23.030Z,99517.91
2023-04-11T09:16:12.117Z,99513.88
2023-04-11T09:18:43.295Z,99512.72
2023-04-11T09:21:12.649Z,99508.03
2023-04-11T09:23:40.556Z,99504.13
2023-04-11T09:26:09.947Z,99508.16
2023-04-11T09:28:55.161Z,99493.38
2023-04-11T09:31:38.346Z,99486.28
2023-04-11T09:34:05.473Z,99484.53
2023-04-11T09:36:32.639Z,99480.06
2023-04-11T09:38:59.916Z,99481.91
2023-04-11T09:41:34.850Z,99482.75
2023-04-11T09:44:02.621Z,99480.09
2023-04-11T09:46:29.745Z,99472.63
2023-04-11T09:48:57.083Z,99462.19
2023-04-11T09:51:35.966Z,99462.50
2023-04-11T09:54:04.981Z,99458.84
2023-04-11T09:56:34.743Z,99456.59
2023-04-11T09:59:02.957Z,99460.03
2023-04-11T10:01:30.111Z,99447.59
2023-04-11T10:03:58.530Z,99447.81
2023-04-11T10:06:41.632Z,99438.47
2023-04-11T10:09:14.184Z,99437.59
2023-04-11T10:11:45.050Z,99434.09
2023-04-11T10:14:36.698Z,99430.50
2023-04-11T10:17:24.238Z,99420.47
2023-04-11T10:19:56.844Z,99419.16
2023-04-11T10:22:43.495Z,99417.66
2023-04-11T10:25:24.925Z,99417.53
2023-04-11T10:28:04.241Z,99417.34
2023-04-11T10:31:01.695Z,99415.50
2023-04-11T10:33:28.970Z,99419.16
2023-04-11T10:36:06.060Z,99409.66
2023-04-11T10:38:46.228Z,99410.69
2023-04-11T10:41:16.701Z,99397.97
2023-04-11T10:43:44.119Z,99400.41
2023-04-11T10:46:25.066Z,99391.03
2023-04-11T10:49:03.366Z,99384.53
2023-04-11T10:51:32.659Z,99377.03
2023-04-11T10:54:00.956Z,99379.78
2023-04-11T10:56:44.185Z,99370.34
2023-04-11T10:59:34.415Z,99362.03
2023-04-11T11:02:02.954Z,99370.31
2023-04-11T11:04:37.433Z,99367.22
2023-04-11T11:07:12.622Z,99366.59
2023-04-11T11:09:39.899Z,99360.38
2023-04-11T11:12:11.157Z,99355.59
2023-04-11T11:14:39.388Z,99339.97
2023-04-11T11:17:07.740Z,99340.25
2023-04-11T11:19:36.196Z,99346.84
2023-04-11T11:22:04.916Z,99342.56
2023-04-11T11:24:32.602Z,99337.31
2023-04-11T11:26:59.801Z,99338.00
2023-04-11T11:29:31.977Z,99331.88
2023-04-11T11:32:01.210Z,99333.84
2023-04-11T11:34:30.148Z,99324.50
2023-04-11T11:36:59.264Z,99334.88
2023-04-11T11:39:27.860Z,99326.59
2023-04-11T11:41:56.254Z,99326.63
2023-04-11T11:44:28.319Z,99324.81
2023-04-11T11:47:05.300Z,99322.88
2023-04-11T11:49:52.811Z,99311.53
2023-04-11T11:52:43.681Z,99315.75
2023-04-11T11:55:19.781Z,99305.75
2023-04-11T11:57:50.433Z,99310.59
2023-04-11T12:00:27.845Z,99305.41
2023-04-11T12:02:56.624Z,99295.19
2023-04-11T12:05:33.209Z,99300.69
2023-04-11T12:08:02.770Z,99299.25
2023-04-11T12:10:56.342Z,99296.31
2023-04-11T12:13:27.328Z,99297.16
2023-04-11T12:16:01.598Z,99292.25
2023-04-11T12:18:28.935Z,99289.66
2023-04-11T12:20:56.224Z,99283.25
2023-04-11T12:23:23.464Z,99283.88
2023-04-11T12:25:50.746Z,99274.63
2023-04-11T12:28:18.063Z,99275.91
2023-04-11T12:30:45.031Z,99274.25
2023-04-11T12:33:13.806Z,99275.31
2023-04-11T12:35:40.809Z,99264.91
2023-04-11T12:38:08.142Z,99273.06
2023-04-11T12:40:35.287Z,99266.56
2023-04-11T12:43:02.504Z,99259.88
2023-04-11T12:45:29.863Z,99255.59
2023-04-11T12:47:56.846Z,99266.09
2023-04-11T12:50:24.422Z,99262.50
2023-04-11T12:52:51.969Z,99263.25
2023-04-11T12:55:19.227Z,99251.97
2023-04-11T12:57:46.240Z,99249.16
2023-04-11T13:00:14.066Z,99246.66
2023-04-11T13:02:44.598Z,99243.94
2023-04-11T13:05:14.594Z,99241.34
2023-04-11T13:07:42.864Z,99246.53
2023-04-11T13:10:10.616Z,99243.22
2023-04-11T13:12:41.364Z,99240.88
2023-04-11T13:15:09.767Z,99246.88
2023-04-11T13:17:36.969Z,99244.53
2023-04-11T13:20:08.106Z,99241.53
2023-04-11T13:22:35.171Z,99235.44
2023-04-11T13:25:02.105Z,99240.88
2023-04-11T13:27:29.406Z,99234.56
2023-04-11T13:29:56.547Z,99225.09
2023-04-11T13:32:23.966Z,99225.94
2023-04-11T13:34:51.822Z,99222.72
2023-04-11T13:37:18.950Z,99227.91
2023-04-11T13:39:46.258Z,99225.78
2023-04-11T13:42:13.743Z,99230.31
2023-04-11T13:44:40.700Z,99225.75
2023-04-11T13:47:07.875Z,99224.13
2023-04-11T13:49:34.926Z,99231.63
2023-04-11T13:52:01.904Z,99231.75
2023-04-11T13:54:29.690Z,99228.78
2023-04-11T13:56:57.036Z,99221.59
2023-04-11T13:59:24.215Z,99224.78
2023-04-11T14:01:51.347Z,99219.97
2023-04-11T14:04:18.698Z,99223.91
2023-04-11T14:06:45.893Z,99221.91
2023-04-11T14:09:12.945Z,99229.50
2023-04-11T14:11:40.050Z,99214.44
2023-04-11T14:14:07.145Z,99209.75
2023-04-11T14:16:34.241Z,99218.00
2023-04-11T14:19:01.222Z,99211.41
2023-04-11T14:21:28.760Z,99203.06
2023-04-11T14:23:56.488Z,99207.44
2023-04-11T14:26:23.621Z,99207.00
2023-04-11T14:28:50.678Z,99206.50
2023-04-11T14:31:17.832Z,99201.31
2023-04-11T14:33:44.922Z,99201.75
2023-04-11T14:36:12.130Z,99196.84
2023-04-11T14:38:39.516Z,99196.16
2023-04-11T14:41:06.657Z,99200.81
2023-04-11T14:43:33.632Z,99202.50
2023-04-11T14:46:00.800Z,99195.00
2023-04-11T14:48:28.899Z,99197.00
2023-04-11T14:50:56.200Z,99199.25
2023-04-11T14:53:23.580Z,99195.59
2023-04-11T14:55:50.678Z,99190.59
2023-04-11T14:58:17.593Z,99193.97
2023-04-11T15:00:44.968Z,99186.63
2023-04-11T15:03:12.590Z,99182.44
2023-04-11T15:05:40.208Z,99183.81
2023-04-11T15:08:08.262Z,99176.38
2023-04-11T15:10:35.581Z,99186.19
2023-04-11T15:13:02.924Z,99181.53
2023-04-11T15:15:30.094Z,99173.97
2023-04-11T15:18:26.060Z,99177.56
2023-04-11T15:20:53.225Z,99184.28
2023-04-11T15:23:21.112Z,99190.06
2023-04-11T15:25:58.450Z,99182.03
2023-04-11T15:28:27.546Z,99196.28
2023-04-11T15:30:55.526Z,99177.66
2023-04-11T15:33:24.194Z,99179.91
2023-04-11T15:35:57.901Z,99175.00
2023-04-11T15:38:27.656Z,99177.69
2023-04-11T15:40:58.618Z,99181.88
2023-04-11T15:43:26.014Z,99174.25
2023-04-11T15:45:53.568Z,99188.22
2023-04-11T15:48:20.868Z,99182.69
2023-04-11T15:50:47.852Z,99180.63
2023-04-11T15:53:14.840Z,99180.03
2023-04-11T15:55:42.832Z,99187.91
2023-04-11T15:58:10.108Z,99192.31
2023-04-11T16:00:38.503Z,99177.13
2023-04-11T16:03:10.611Z,99183.06
2023-04-11T16:05:40.924Z,99182.13
2023-04-11T16:08:08.405Z,99183.19
2023-04-11T16:10:35.780Z,99177.69
2023-04-11T16:13:03.298Z,99181.53
2023-04-11T16:15:30.574Z,99194.19
2023-04-11T16:17:57.912Z,99177.06
2023-04-11T16:20:25.884Z,99183.72
2023-04-11T16:22:52.932Z,99191.03
2023-04-11T16:25:21.568Z,99186.09
2023-04-11T16:27:50.455Z,99190.13
2023-04-11T16:30:17.742Z,99190.81
2023-04-11T16:32:45.231Z,99195.84
2023-04-11T16:35:12.414Z,99188.78
2023-04-11T16:37:39.571Z,99190.94
2023-04-11T16:40:11.975Z,99191.78
2023-04-11T16:42:40.194Z,99190.81
2023-04-11T16:45:09.088Z,99191.25
2023-04-11T16:47:36.450Z,99195.03
2023-04-11T16:50:05.143Z,99195.75
2023-04-11T16:52:32.801Z,99198.69
2023-04-11T16:54:59.937Z,99188.44
2023-04-11T16:57:27.617Z,99199.75
2023-04-11T16:59:54.777Z,99200.38
2023-04-11T17:02:22.061Z,99208.09
2023-04-11T17:04:51.914Z,99210.66
2023-04-11T17:07:19.129Z,99208.06
2023-04-11T17:09:49.927Z,99200.19
2023-04-11T17:12:16.881Z,99201.63
2023-04-11T17:14:45.824Z,99201.97
2023-04-11T17:17:12.836Z,99202.31
2023-04-11T17:19:39.891Z,99201.81
2023-04-11T17:22:07.311Z,99211.41
2023-04-11T17:24:34.188Z,99209.84
2023-04-11T17:27:01.224Z,99208.25
2023-04-11T17:29:28.612Z,99214.00
2023-04-11T17:31:55.616Z,99210.50
2023-04-11T17:34:22.515Z,99209.47
2023-04-11T17:36:49.525Z,99208.44
2023-04-11T17:39:18.152Z,99216.66
2023-04-11T17:41:46.092Z,99200.69
2023-04-11T17:44:13.643Z,99204.53
2023-04-11T17:46:41.314Z,99212.69
2023-04-11T17:49:08.544Z,99210.53
2023-04-11T17:51:38.842Z,99208.66
2023-04-11T17:54:09.988Z,99216.56
2023-04-11T17:56:37.262Z,99210.34
2023-04-11T17:59:04.249Z,99208.47
2023-04-11T18:01:32.680Z,99206.31
2023-04-11T18:04:02.263Z,99206.31
2023-04-11T18:06:29.901Z,99206.88
2023-04-11T18:08:57.200Z,99200.63
2023-04-11T18:11:24.594Z,99193.31
2023-04-11T18:13:52.069Z,99200.66
2023-04-11T18:16:19.313Z,99201.22
2023-04-11T18:18:47.539Z,99199.34
2023-04-11T18:21:16.350Z,99199.63
2023-04-11T18:23:43.529Z,99188.47
2023-04-11T18:26:10.777Z,99201.00
2023-04-11T18:28:37.824Z,99199.59
2023-04-11T18:31:05.366Z,99197.16
2023-04-11T18:33:32.936Z,99197.16
2023-04-11T18:36:00.167Z,99203.69
2023-04-11T18:38:27.542Z,99191.78
2023-04-11T18:40:56.214Z,99202.09
2023-04-11T18:43:24.714Z,99194.25
2023-04-11T18:45:51.681Z,99192.91
2023-04-11T18:48:18.684Z,99195.34
2023-04-11T18:50:48.630Z,99194.25
2023-04-11T18:53:16.449Z,99191.81
2023-04-11T18:55:43.488Z,99189.91
2023-04-11T18:58:12.870Z,99193.16
2023-04-11T19:00:42.131Z,99191.00
2023-04-11T19:03:15.570Z,99193.19
2023-04-11T19:05:44.053Z,99186.38
2023-04-11T19:08:11.278Z,99192.91
2023-04-11T19:10:38.562Z,99194.00
2023-04-11T19:13:06.489Z,99190.75
2023-04-11T19:15:33.598Z,99184.22
2023-04-11T19:18:02.003Z,99186.38
2023-04-11T19:20:29.763Z,99183.13
2023-04-11T19:22:59.462Z,99182.59
2023-04-11T19:25:32.200Z,99181.25
2023-04-11T19:27:59.214Z,99176.63
2023-04-11T19:30:26.429Z,99178.25
2023-04-11T19:32:53.319Z,99179.63
2023-04-11T19:35:24.310Z,99181.00
2023-04-11T19:37:52.340Z,99188.84
2023-04-11T19:40:19.361Z,99183.97
2023-04-11T19:42:46.441Z,99178.28
2023-04-11T19:45:13.415Z,99186.94
2023-04-11T19:47:41.857Z,99178.53
2023-04-11T19:50:13.139Z,99173.38
2023-04-11T19:52:41.807Z,99184.50
2023-04-11T19:55:09.683Z,99176.09
2023-04-11T19:57:39.095Z,99182.06
2023-04-11T20:00:12.419Z,99184.22
2023-04-11T20:02:45.170Z,99185.59
2023-04-11T20:05:15.523Z,99189.66
2023-04-11T20:07:45.102Z,99182.31
2023-04-11T20:14:07.361Z,99177.69
2023-04-11T20:17:50.621Z,99192.88
2023-04-11T20:20:39.912Z,99185.28
2023-04-11T20:23:27.008Z,99186.91
2023-04-11T20:28:58.433Z,99183.59
2023-04-11T20:31:28.061Z,99191.72
2023-04-11T20:33:55.396Z,99189.28
2023-04-11T20:36:22.540Z,99189.00
2023-04-11T20:38:49.914Z,99190.38
2023-04-11T20:41:19.335Z,99191.72
2023-04-11T20:43:46.339Z,99198.50
2023-04-11T20:46:13.885Z,99196.84
2023-04-11T20:48:42.790Z,99197.94
2023-04-11T20:51:09.910Z,99204.44
2023-04-11T20:53:36.866Z,99200.38
2023-04-11T20:56:04.450Z,99200.38
2023-04-11T20:58:31.368Z,99194.66
2023-04-11T21:00:59.413Z,99203.84
2023-04-11T21:03:30.359Z,99204.66
2023-04-11T21:05:57.546Z,99204.38
2023-04-11T21:08:24.869Z,99203.28
2023-04-11T21:10:51.839Z,99197.84
2023-04-11T21:13:18.851Z,99203.28
2023-04-11T21:15:45.860Z,99202.47
2023-04-11T21:18:12.858Z,99206.28
2023-04-11T21:20:40.558Z,99201.13
2023-04-11T21:23:07.452Z,99206.00
2023-04-11T21:25:37.014Z,99198.16
2023-04-11T21:28:03.993Z,99206.00
2023-04-11T21:30:31.087Z,99203.03
2023-04-11T21:32:58.122Z,99203.84
2023-04-11T21:35:25.544Z,99200.84
2023-04-11T21:37:52.504Z,99196.25
2023-04-11T21:40:19.446Z,99203.00
2023-04-11T21:42:46.377Z,99200.00
2023-04-11T21:45:13.504Z,99200.28
2023-04-11T21:47:40.703Z,99203.53
2023-04-11T21:50:08.786Z,99212.16
2023-04-11T21:52:35.884Z,99205.09
2023-04-11T21:55:02.921Z,99204.00
2023-04-11T21:57:33.548Z,99208.59
2023-04-11T22:00:00.696Z,99202.66
2023-04-11T22:02:27.742Z,99211.88
2023-04-11T22:05:05.715Z,99212.94
2023-04-11T22:07:39.129Z,99212.94
2023-04-11T22:10:10.046Z,99211.31
2023-04-11T22:12:37.379Z,99210.25
2023-04-11T22:15:06.779Z,99210.72
2023-04-11T22:17:34.918Z,99206.38
2023-04-11T22:20:01.831Z,99205.53
2023-04-11T22:22:30.245Z,99200.09
2023-04-11T22:25:00.276Z,99199.00
2023-04-11T22:27:27.528Z,99200.06
2023-04-11T22:29:57.194Z,99195.75
2023-04-11T22:32:24.302Z,99191.41
2023-04-11T22:34:51.436Z,99196.00
2023-04-11T22:37:18.485Z,99194.38
2023-04-11T22:39:45.777Z,99202.44
2023-04-11T22:42:12.822Z,99201.06
2023-04-11T22:44:39.791Z,99195.09
2023-04-11T22:47:11.291Z,99199.97
2023-04-11T22:49:41.015Z,99199.72
2023-04-11T22:52:09.480Z,99194.03
2023-04-11T22:54:36.471Z,99190.75
2023-04-11T22:57:03.767Z,99194.56
2023-04-11T22:59:31.028Z,99194.25
2023-04-11T23:01:58.161Z,99199.66
2023-04-11T23:04:25.261Z,99192.06
2023-04-11T23:06:53.828Z,99193.38
2023-04-11T23:09:21.314Z,99190.66
2023-04-11T23:11:49.002Z,99188.44
2023-04-11T23:14:21.287Z,99187.06
2023-04-11T23:16:48.702Z,99192.47
2023-04-11T23:19:17.251Z,99193.31
2023-04-11T23:21:44.690Z,99185.72
2023-04-11T23:24:11.715Z,99179.50
2023-04-11T23:26:38.759Z,99187.88
2023-04-11T23:29:05.749Z,99184.59
2023-04-11T23:31:32.730Z,99183.78
2023-04-11T23:34:00.747Z,99197.84
2023-04-11T23:36:28.122Z,99198.09
2023-04-11T23:38:55.300Z,99191.59
2023-04-11T23:41:22.426Z,99191.34
2023-04-11T23:43:49.411Z,99191.91
2023-04-11T23:46:19.270Z,99186.19
2023-04-11T23:48:49.290Z,99184.00
2023-04-11T23:51:16.799Z,99183.75
2023-04-11T23:53:44.015Z,99188.91
2023-04-11T23:56:11.065Z,99189.97
2023-04-11T23:58:38.421Z,99189.41
